Flight Track Log - Related Links

Times and Time Zones

All times are in EDT time to prevent confusion due to time zone crossing. See the N13HM flight status page for this flight to view local times or setup timezone preferences in your user account.

Time Position Orientation Groundspeed Altitude Reporting Facility
EDT Latitude Longitude Course Direction KTS MPH feet Rate Location/Type
Sat 12:33:08 PM 43.5392 -84.2342 297° West 120 138 12,000  Level Minneapolis Center
Sat 12:34:10 PM 43.5506 -84.2739 292° West 113 130 6,400 -2,323 Descending Minneapolis Center
Sat 12:35:00 PM 43.6295 -84.3320 299° West  Level FlightAware Approximate
Sat 12:35:12 PM 43.5672 -84.3122 301° West 113 130 7,200  Level Minneapolis Center
Sat 12:36:00 PM 43.6510 -84.3860 297° West  Level FlightAware Approximate
Sat 12:36:14 PM 43.5803 -84.3528 294° West 114 131 8,100  Level Minneapolis Center
Sat 12:37:00 PM 43.6716 -84.4407 297° West  Level FlightAware Approximate
Sat 12:37:16 PM 43.5994 -84.3917 304° West 120 138 8,900  Level Minneapolis Center
Sat 12:38:00 PM 43.6921 -84.4955 297° West  Level FlightAware Approximate
Sat 12:38:18 PM 43.6197 -84.4336 304° West 128 147 9,600  Level Minneapolis Center
Sat 12:39:20 PM 43.6294 -84.4817 286° West 130 150 10,200 726 Climbing Minneapolis Center
Sat 12:40:22 PM 43.6528 -84.5339 302° West 132 152 11,100 726 Climbing Minneapolis Center
Sat 12:41:24 PM 43.6669 -84.5789 294° West 129 148 11,700 484 Climbing Minneapolis Center
Sat 12:42:26 PM 43.6800 -84.6289 290° West 135 155 12,100 145 Climbing Minneapolis Center
Sat 12:43:28 PM 43.7008 -84.6867 297° West 158 182 12,000 -97 Descending Minneapolis Center
Sat 12:44:30 PM 43.7233 -84.7506 296° West 178 205 11,900 -48 Descending Minneapolis Center
Sat 12:45:32 PM 43.7503 -84.8272 296° West 184 212 11,900  Level Minneapolis Center
Sat 12:46:34 PM 43.7753 -84.8878 300° West 182 209 11,900  Level Minneapolis Center
Sat 12:47:36 PM 43.7983 -84.9469 298° West 178 205 11,900  Level Minneapolis Center
Sat 12:48:39 PM 43.8206 -85.0050 298° West 173 199 11,900  Level Minneapolis Center
Sat 12:49:41 PM 43.8428 -85.0642 298° West 172 198 11,900  Level Minneapolis Center
Sat 12:50:43 PM 43.8658 -85.1225 299° West 173 199 11,900  Level Minneapolis Center
Sat 12:51:45 PM 43.8928 -85.1925 298° West 173 199 11,900 48 Level Minneapolis Center
Sat 12:52:47 PM 43.9153 -85.2528 297° West 174 200 12,000  Climbing Minneapolis Center
Sat 12:53:49 PM 43.9378 -85.3125 298° West 175 201 11,900 -48 Descending Minneapolis Center
Sat 12:54:51 PM 43.9606 -85.3731 298° West 176 203 11,900 48 Level Minneapolis Center
Sat 12:55:53 PM 43.9831 -85.4308 298° West 174 200 12,000 48 Climbing Minneapolis Center
Sat 12:56:55 PM 44.0094 -85.5011 298° West 173 199 12,000  Level Minneapolis Center
Sat 12:57:57 PM 44.0308 -85.5594 297° West 172 198 12,000  Level Minneapolis Center
Sat 12:58:59 PM 44.0544 -85.6186 299° West 173 199 12,000 -48 Level Minneapolis Center
Sat 01:00:01 PM 44.0761 -85.6778 297° West 173 199 11,900 -47 Descending Minneapolis Center
Sat 01:01:07 PM 44.1033 -85.7500 298° West 173 199 11,900  Level Minneapolis Center
Sat 01:02:09 PM 44.1264 -85.8103 298° West 176 203 11,900  Level Minneapolis Center
Sat 01:03:11 PM 44.1486 -85.8700 297° West 175 201 11,900  Level Minneapolis Center
Sat 01:04:13 PM 44.1703 -85.9281 298° West 171 197 11,900  Level Minneapolis Center
Sat 01:05:15 PM 44.1911 -85.9861 297° West 168 193 11,900  Level Minneapolis Center
Sat 01:06:17 PM 44.2122 -86.0431 297° West 166 191 11,900  Level Minneapolis Center
Sat 01:07:19 PM 44.2331 -86.1006 297° West 167 192 11,900  Level Minneapolis Center
Sat 01:08:21 PM 44.2592 -86.1703 298° West 169 194 11,900  Level Minneapolis Center
Sat 01:09:23 PM 44.2808 -86.2281 298° West 169 194 11,900  Level Minneapolis Center
Sat 01:10:25 PM 44.3019 -86.2867 297° West 170 196 11,900  Level Minneapolis Center
Sat 01:11:27 PM 44.3236 -86.3453 297° West 170 196 11,900  Level Minneapolis Center
Sat 01:12:29 PM 44.3447 -86.4053 296° West 172 198 11,900  Level Minneapolis Center
Sat 01:13:31 PM 44.3667 -86.4642 298° West 172 198 11,900  Level Minneapolis Center
Sat 01:14:34 PM 44.3928 -86.5364 297° West 174 200 11,900  Level Minneapolis Center
Sat 01:15:36 PM 44.4139 -86.5944 297° West 169 194 11,900  Level Minneapolis Center
Sat 01:16:38 PM 44.4356 -86.6544 297° West 171 197 11,900  Level Minneapolis Center
Sat 01:17:40 PM 44.4572 -86.7133 297° West 171 197 11,900  Level Minneapolis Center
Sat 01:18:42 PM 44.4786 -86.7728 297° West 170 196 11,900 48 Level Minneapolis Center
Sat 01:19:44 PM 44.4994 -86.8325 296° West 170 196 12,000 48 Climbing Minneapolis Center
Sat 01:20:46 PM 44.5258 -86.9036 298° West 172 198 12,000  Level Minneapolis Center
Sat 01:21:48 PM 44.5472 -86.9642 296° West 173 199 12,000  Level Minneapolis Center
Sat 01:22:50 PM 44.5683 -87.0239 296° West 172 198 12,000  Level Minneapolis Center
Sat 01:23:52 PM 44.5894 -87.0839 296° West 172 198 12,000  Level Minneapolis Center
Sat 01:24:54 PM 44.6100 -87.1425 296° West 169 194 12,000  Level Minneapolis Center
Sat 01:25:56 PM 44.6317 -87.2017 297° West 170 196 12,000  Level Minneapolis Center
Sat 01:26:58 PM 44.6567 -87.2728 296° West 169 194 12,000  Level Minneapolis Center
Sat 01:28:00 PM 44.6783 -87.3314 297° West 170 196 12,000  Level Minneapolis Center
Sat 01:29:03 PM 44.6997 -87.3911 297° West 171 197 12,000  Level Minneapolis Center
Sat 01:30:05 PM 44.7192 -87.4511 295° West 170 196 12,000 -48 Level Minneapolis Center
Sat 01:31:07 PM 44.7400 -87.5100 296° West 168 193 11,900 -48 Descending Minneapolis Center
Sat 01:32:09 PM 44.7603 -87.5675 296° West 165 190 11,900 48 Level Minneapolis Center
Sat 01:33:11 PM 44.7847 -87.6369 296° West 166 191 12,000 48 Climbing Minneapolis Center
Sat 01:34:13 PM 44.8053 -87.6950 297° West 165 190 12,000  Level Minneapolis Center
Sat 01:35:15 PM 44.8256 -87.7539 296° West 167 192 12,000 -48 Level Minneapolis Center
Sat 01:36:17 PM 44.8456 -87.8119 296° West 166 191 11,900  Descending Minneapolis Center
Sat 01:37:19 PM 44.8658 -87.8694 296° West 165 190 12,000 48 Climbing Minneapolis Center
Sat 01:38:21 PM 44.8858 -87.9267 296° West 163 188 12,000 -48 Level Minneapolis Center
Sat 01:39:23 PM 44.9097 -87.9958 296° West 164 189 11,900  Descending Minneapolis Center
Sat 01:40:25 PM 44.9292 -88.0556 295° West 168 193 12,000 48 Climbing Minneapolis Center
Sat 01:41:27 PM 44.9497 -88.1144 296° West 168 193 12,000  Level Minneapolis Center
Sat 01:42:29 PM 44.9700 -88.1742 296° West 169 194 12,000  Level Minneapolis Center
Sat 01:43:31 PM 44.9914 -88.2350 296° West 172 198 12,000  Level Minneapolis Center
Sat 01:44:33 PM 45.0136 -88.2981 297° West 167 192 12,000 -48 Level Minneapolis Center
Sat 01:45:35 PM 45.0358 -88.3672 294° West 172 198 11,900 -48 Descending Minneapolis Center
Sat 01:46:38 PM 45.0569 -88.4281 296° West 173 199 11,900 48 Level Minneapolis Center
Sat 01:47:40 PM 45.0761 -88.4872 295° West 169 194 12,000 48 Climbing Minneapolis Center
Sat 01:48:42 PM 45.0969 -88.5461 297° West 168 193 12,000  Level Minneapolis Center
Sat 01:49:44 PM 45.1175 -88.6064 296° West 169 194 12,000  Level Minneapolis Center
Sat 01:50:46 PM 45.1372 -88.6644 296° West 166 191 12,000  Level Minneapolis Center
Sat 01:51:48 PM 45.1611 -88.7386 295° West 171 197 12,000  Level Minneapolis Center
Sat 01:52:50 PM 45.1808 -88.7989 295° West 170 196 12,000  Level Minneapolis Center
Sat 01:53:52 PM 45.2011 -88.8589 296° West 169 194 12,000  Level Minneapolis Center
Sat 01:54:54 PM 45.2217 -88.9172 297° West 166 191 12,000  Level Minneapolis Center
Sat 01:56:09 PM 45.2442 -88.9886 294° West 165 190 12,000  Level Minneapolis Center
Sat 01:57:11 PM 45.2633 -89.0467 295° West 163 188 12,000  Level Minneapolis Center
Sat 01:58:13 PM 45.2861 -89.1153 295° West 161 185 12,000  Level Minneapolis Center
Sat 01:59:15 PM 45.3053 -89.1708 296° West 158 182 12,000  Level Minneapolis Center
Sat 02:00:17 PM 45.3231 -89.2272 294° West 157 181 12,000  Level Minneapolis Center
Sat 02:01:19 PM 45.3425 -89.2839 296° West 158 182 12,000  Level Minneapolis Center
Sat 02:02:21 PM 45.3603 -89.3403 294° West 156 180 12,000  Level Minneapolis Center
Sat 02:03:23 PM 45.3789 -89.3978 295° West 159 183 12,000  Level Minneapolis Center
Sat 02:04:25 PM 45.4014 -89.4656 295° West 158 182 12,000  Level Minneapolis Center
Sat 02:05:27 PM 45.4194 -89.5236 294° West 159 183 12,000  Level Minneapolis Center
Sat 02:06:29 PM 45.4394 -89.5806 297° West 161 185 12,000  Level Minneapolis Center
Sat 02:07:31 PM 45.4572 -89.6397 293° West 162 186 12,000  Level Minneapolis Center
Sat 02:08:33 PM 45.4769 -89.6972 296° West 162 186 12,000  Level Minneapolis Center
Sat 02:09:35 PM 45.4956 -89.7564 294° West 162 186 12,000  Level Minneapolis Center
Sat 02:10:37 PM 45.5144 -89.8142 295° West 162 186 12,000  Level Minneapolis Center
Sat 02:11:40 PM 45.5364 -89.8858 294° West 163 188 12,000  Level Minneapolis Center
Sat 02:12:42 PM 45.5556 -89.9433 295° West 162 186 12,000  Level Minneapolis Center
Sat 02:13:44 PM 45.5742 -90.0022 294° West 162 186 12,000  Level Minneapolis Center
Sat 02:14:46 PM 45.5931 -90.0600 295° West 162 186 12,000 -242 Level Minneapolis Center
Sat 02:15:48 PM 45.6133 -90.1219 295° West 165 190 11,500 -484 Descending Minneapolis Center
Sat 02:16:50 PM 45.6350 -90.1908 294° West 174 200 11,000 -435 Descending Minneapolis Center
Sat 02:17:52 PM 45.6528 -90.2639 289° West 185 213 10,600 -485 Descending Minneapolis Center
Sat 02:19:06 PM 45.6642 -90.3653 279° West 187 215 9,900 -529 Descending Minneapolis Center
Sat 02:20:08 PM 45.6756 -90.4369 283° West 185 213 9,400 -484 Descending Minneapolis Center
Sat 02:21:10 PM 45.6881 -90.5086 284° West 185 213 8,900 -480 Descending Minneapolis Center
Sat 02:22:13 PM 45.6972 -90.5764 281° West 181 208 8,400 -480 Descending Minneapolis Center
Sat 02:23:15 PM 45.7061 -90.6397 281° West 173 199 7,900 -484 Descending Minneapolis Center
Sat 02:24:17 PM 45.7167 -90.7025 284° West 167 192 7,400 -532 Descending Minneapolis Center
Sat 02:25:19 PM 45.7297 -90.7811 283° West 167 192 6,800 -484 Descending Minneapolis Center
Sat 02:26:21 PM 45.7389 -90.8461 281° West 168 193 6,400 -435 Descending Minneapolis Center
Sat 02:27:23 PM 45.7486 -90.9092 282° West 165 190 5,900 -484 Descending Minneapolis Center
Sat 02:28:25 PM 45.7583 -90.9728 282° West 164 189 5,400 -484 Descending Minneapolis Center
Sat 02:29:27 PM 45.7678 -91.0347 282° West 162 186 4,900 -484 Descending Minneapolis Center
Sat 02:30:29 PM 45.7761 -91.0958 281° West 160 184 4,400 -484 Descending Minneapolis Center
Sat 02:32:00 PM 45.7895 -91.1928 281° West  Level FlightAware Approximate
Sat 02:39:00 PM 45.8933 -91.5141 23° Northeast  Level FlightAware Approximate
Sat 02:40:00 PM 45.9353 -91.4889 23° Northeast  Level FlightAware Approximate
Sat 02:41:00 PM 45.9772 -91.4637 23° Northeast  Level FlightAware Approximate
Sat 02:42:00 PM 46.0167 -91.4333 35° Northeast  Level FlightAware Approximate
Sat 02:43:00 PM 46.0253 -91.4443 35° Northeast  Level Estimated
Sat 02:44:00 PM 46.0253 -91.4443 35° Northeast  Level Estimated
Sat 02:45:00 PM 46.0253 -91.4443 35° Northeast  Level Estimated
Sat 02:46:00 PM 46.0253 -91.4443 35° Northeast  Level Estimated
Sat 02:47:00 PM 46.0253 -91.4443 35° Northeast  Level Estimated

Login

Don't have an account? Register now (free) for customized features, flight alerts, and more!